Data for 08/08/2013

Time Sea-Level Adjusted Pressure Absolute Pressure Temperature Relative Humidity Dew Point   
(mb) (inHg) (mb) (inHg) (C) (F) (%) (C) (F)
00:05 1019 30.09 848 25.04 18.1 64.5 51 7.9 46.2
00:10 1019 30.09 849 25.07 18 64.4 51 7.9 46.3
00:15 1019 30.09 849 25.07 17.9 64.2 52 8 46.5
00:20 1019 30.09 848 25.04 17.8 64.1 52 8 46.4
00:25 1019 30.09 849 25.07 17.8 64 53 8.1 46.6
00:30 1019 30.09 849 25.07 17.6 63.7 54 8.2 46.8
00:35 1019 30.09 848 25.04 17.5 63.6 54 8.2 46.8
00:40 1019 30.09 848 25.04 17.5 63.5 54 8.3 46.9
00:45 1019 30.09 848 25.04 17.4 63.3 55 8.3 46.9
00:50 1019 30.09 848 25.04 17.3 63.1 55 8.3 47
00:55 1019 30.09 848 25.04 17.2 63 55 8.3 47
01:00 1019 30.09 849 25.07 17.2 62.9 56 8.4 47.2
01:05 1019 30.09 849 25.07 17.1 62.8 56 8.4 47.1
01:10 1019 30.09 849 25.07 17.1 62.8 56 8.4 47.2
01:15 1019 30.09 849 25.07 17 62.7 57 8.5 47.2
01:20 1019 30.09 849 25.07 17 62.6 57 8.5 47.3
01:25 1019 30.09 849 25.07 16.9 62.4 57 8.5 47.3
01:30 1019 30.09 849 25.07 16.9 62.4 57 8.4 47.1
01:35 1019 30.09 849 25.07 16.9 62.4 57 8.4 47.1
01:40 1019 30.09 849 25.07 16.9 62.3 57 8.5 47.2
01:45 1019 30.09 849 25.07 16.7 62.1 58 8.5 47.3
01:50 1019 30.09 849 25.07 16.6 61.8 58 8.5 47.3
01:55 1019 30.09 849 25.07 16.5 61.8 58 8.4 47.2
02:00 1019 30.09 849 25.07 16.5 61.7 59 8.4 47.2
02:05 1019 30.09 849 25.07 16.4 61.6 59 8.4 47.2
02:10 1019 30.09 849 25.07 16.5 61.7 58 8.3 47
02:15 1020 30.12 849 25.07 16.5 61.7 58 8.4 47
02:20 1020 30.12 849 25.07 16.4 61.6 59 8.5 47.2
02:25 1020 30.12 849 25.07 16.3 61.4 59 8.3 47
02:30 1020 30.12 849 25.07 16.3 61.3 59 8.4 47.1
02:35 1020 30.12 849 25.07 16.2 61.1 60 8.4 47.1
02:40 1020 30.12 849 25.07 16.1 61 60 8.4 47.1
02:45 1020 30.12 849 25.07 16 60.8 60 8.3 47
02:50 1020 30.12 849 25.07 16 60.8 60 8.3 46.9
02:55 1020 30.12 849 25.07 16 60.8 60 8.3 47
03:00 1020 30.12 849 25.07 15.9 60.6 61 8.4 47.2
03:05 1020 30.12 849 25.07 15.7 60.3 61 8.3 47
03:10 1020 30.12 849 25.07 15.6 60.1 61 8.3 46.9
03:15 1020 30.12 849 25.07 15.6 60.2 61 8.3 46.9
03:20 1020 30.12 849 25.07 15.6 60.2 61 8.2 46.7
03:25 1020 30.12 849 25.07 15.7 60.2 61 8.2 46.7
03:30 1020 30.12 849 25.07 15.7 60.3 61 8.3 46.9
03:35 1020 30.12 849 25.07 15.7 60.2 61 8.2 46.8
03:40 1020 30.12 849 25.07 15.6 60.1 61 8.2 46.7
03:45 1019 30.09 849 25.07 15.5 60 61 8.1 46.7
03:50 1020 30.12 849 25.07 15.5 59.8 61 8.1 46.6
03:55 1020 30.12 849 25.07 15.4 59.7 62 8.1 46.6
04:00 1020 30.12 849 25.07 15.3 59.6 61 8 46.3
04:05 1020 30.12 849 25.07 15.4 59.6 62 8.1 46.5
04:10 1020 30.12 849 25.07 15.3 59.6 62 8.1 46.5
04:15 1020 30.12 849 25.07 15.4 59.6 62 8.1 46.6
04:20 1020 30.12 849 25.07 15.3 59.5 62 8.1 46.5
04:25 1020 30.12 849 25.07 15.3 59.6 62 8.1 46.6
04:30 1020 30.12 849 25.07 15.2 59.4 63 8.2 46.8
04:35 1020 30.12 849 25.07 15.1 59.1 63 8.2 46.8
04:40 1020 30.12 849 25.07 15 59 63 8.2 46.8
04:45 1020 30.12 849 25.07 14.9 58.7 64 8.3 46.9
04:50 1020 30.12 849 25.07 14.6 58.3 65 8.2 46.7
04:55 1020 30.12 849 25.07 14.5 58 66 8.2 46.7
05:00 1020 30.12 849 25.07 14.3 57.8 66 8.1 46.6
05:05 1020 30.12 849 25.07 14.2 57.5 66 8.1 46.5
05:10 1020 30.12 849 25.07 14 57.2 66 7.9 46.2
05:15 1020 30.12 849 25.07 14 57.3 66 7.9 46.2
05:20 1020 30.12 849 25.07 13.9 57.1 66 7.8 46
05:25 1020 30.12 849 25.07 13.8 56.8 66 7.7 45.9
05:30 1020 30.12 849 25.07 13.7 56.7 67 7.7 45.9
05:35 1020 30.12 849 25.07 13.7 56.6 66 7.6 45.7
05:40 1020 30.12 849 25.07 13.7 56.7 66 7.6 45.7
05:45 1020 30.12 849 25.07 13.8 56.9 66 7.7 45.8
05:50 1020 30.12 850 25.1 13.8 56.8 66 7.7 45.9
05:55 1020 30.12 850 25.1 13.8 56.8 66 7.6 45.6
06:00 1020 30.12 850 25.1 13.6 56.5 66 7.5 45.5
06:05 1021 30.15 850 25.1 13.6 56.4 66 7.3 45.2
06:10 1021 30.15 850 25.1 13.6 56.5 65 7.3 45.1
06:15 1021 30.15 850 25.1 13.8 56.9 64 7.3 45.1
06:20 1021 30.15 850 25.1 14.1 57.3 63 7.3 45.1
06:25 1021 30.15 850 25.1 14.3 57.8 62 7.1 44.8
06:30 1021 30.15 850 25.1 14.5 58.1 61 7.1 44.8
06:35 1021 30.15 850 25.1 14.8 58.7 59 7.1 44.7
06:40 1021 30.15 850 25.1 15 59 60 7.3 45.1
06:45 1021 30.15 850 25.1 15.4 59.6 58 7.3 45.1
06:50 1021 30.15 850 25.1 15.4 59.7 58 7.3 45.1
06:55 1021 30.15 850 25.1 15.4 59.8 58 7.2 45
07:00 1021 30.15 850 25.1 15.5 59.8 56 6.7 44.1
07:05 1021 30.15 850 25.1 15.9 60.7 54 6.8 44.3
07:10 1021 30.15 850 25.1 16.8 62.2 52 7 44.7
07:15 1021 30.15 850 25.1 17.5 63.5 52 7.8 46
07:20 1021 30.15 850 25.1 17.7 63.9 52 8 46.3
07:25 1021 30.15 850 25.1 17.8 64 52 7.9 46.3
07:30 1021 30.15 850 25.1 18 64.5 52 8.1 46.6
07:35 1021 30.15 850 25.1 18.7 65.6 50 8.2 46.8
07:40 1021 30.15 850 25.1 19.2 66.5 49 8.4 47
07:45 1021 30.15 850 25.1 18.7 65.7 50 8.1 46.6
07:50 1021 30.15 850 25.1 18.1 64.6 51 7.9 46.3
07:55 1021 30.15 850 25.1 18 64.4 51 7.7 45.8
08:00 1021 30.15 850 25.1 18.2 64.8 50 7.7 45.8
08:05 1021 30.15 850 25.1 18.2 64.7 50 7.8 46.1
08:10 1021 30.15 850 25.1 18.3 64.9 50 7.8 46
08:15 1021 30.15 850 25.1 18.4 65.2 48 7.5 45.5
08:20 1021 30.15 850 25.1 18.4 65.2 48 7.5 45.4
08:25 1021 30.15 850 25.1 18.6 65.4 49 7.8 46.1
08:30 1021 30.15 850 25.1 19.2 66.6 47 7.9 46.1
08:35 1021 30.15 850 25.1 19.1 66.4 48 7.9 46.1
08:40 1021 30.15 850 25.1 20.2 68.3 44 7.6 45.6
08:45 1021 30.15 850 25.1 20.9 69.6 42 7.8 46
08:50 1021 30.15 850 25.1 21.1 70 42 7.8 46.1
08:55 1021 30.15 850 25.1 20.3 68.5 43 7.4 45.4
09:00 1021 30.15 850 25.1 20.5 68.9 46 8.5 47.3
09:05 1021 30.15 850 25.1 20.5 68.8 42 7.4 45.3
09:10 1021 30.15 850 25.1 20.9 69.7 41 7.5 45.4
09:15 1021 30.15 850 25.1 21.2 70.1 40 7.2 44.9
09:20 1021 30.15 850 25.1 21.3 70.3 41 7.7 45.9
09:25 1021 30.15 850 25.1 20.9 69.6 41 7.5 45.4
09:30 1021 30.15 850 25.1 21.4 70.6 39 7 44.7
09:35 1021 30.15 850 25.1 22.1 71.7 38 7.4 45.4
09:40 1021 30.15 850 25.1 21.5 70.6 38 6.7 44.1
09:45 1021 30.15 850 25.1 21.5 70.6 39 7.3 45.1
09:50 1021 30.15 850 25.1 22.3 72.2 36 6.6 43.9
09:55 1021 30.15 850 25.1 23.1 73.5 35 7.1 44.8
10:00 1021 30.15 850 25.1 23.2 73.8 35 7.1 44.7
10:05 1021 30.15 850 25.1 23 73.5 36 7.4 45.3
10:10 1021 30.15 850 25.1 22.4 72.3 37 7.2 44.9
10:15 1021 30.15 850 25.1 22.2 71.9 37 7.1 44.8
10:20 1021 30.15 850 25.1 23.1 73.7 36 7.5 45.6
10:25 1021 30.15 850 25.1 22.7 72.8 36 7.1 44.8
10:30 1021 30.15 850 25.1 22.6 72.6 37 7.4 45.3
10:35 1020 30.12 850 25.1 23.3 73.9 35 7.3 45.2
10:40 1020 30.12 850 25.1 23.7 74.6 35 7.5 45.6
10:45 1020 30.12 850 25.1 23.9 75 33 6.9 44.4
10:50 1020 30.12 850 25.1 24.5 76.1 33 7.6 45.7
10:55 1020 30.12 850 25.1 23.7 74.7 34 7.1 44.8
11:00 1020 30.12 850 25.1 23.9 75 32 6.5 43.8
11:05 1020 30.12 850 25.1 23.8 74.8 34 7.3 45.1
11:10 1020 30.12 850 25.1 23.4 74.2 33 6.4 43.4
11:15 1020 30.12 849 25.07 23.6 74.5 33 6.6 44
11:20 1020 30.12 849 25.07 24.1 75.4 33 7 44.6
11:25 1020 30.12 849 25.07 24.8 76.6 31 6.7 44
11:30 1020 30.12 849 25.07 24.5 76.2 31 6.5 43.7
11:35 1020 30.12 849 25.07 25 77.1 31 7 44.6
11:40 1020 30.12 849 25.07 24.6 76.3 31 6.7 44
11:45 1020 30.12 849 25.07 24.7 76.4 31 6.6 43.8
11:50 1020 30.12 849 25.07 25.4 77.6 31 7.2 45
11:55 1020 30.12 849 25.07 25.4 77.7 30 6.6 43.8
12:00 1020 30.12 849 25.07 25.8 78.5 30 7.1 44.7
12:05 1020 30.12 849 25.07 25.7 78.3 29 6.4 43.6
12:10 1020 30.12 849 25.07 25.4 77.6 31 7.2 45
12:15 1020 30.12 849 25.07 25.3 77.6 29 6.3 43.3
12:20 1020 30.12 849 25.07 26.2 79.2 28 6.6 43.9
12:25 1020 30.12 849 25.07 26.3 79.3 29 7 44.6
12:30 1020 30.12 849 25.07 26.5 79.6 28 6.8 44.2
12:35 1020 30.12 849 25.07 26.3 79.3 26 5.7 42.3
12:40 1020 30.12 849 25.07 27.7 81.9 26 6.6 43.9
12:45 1020 30.12 849 25.07 27.2 81 27 7 44.6
12:50 1020 30.12 849 25.07 26.8 80.2 27 6.6 43.9
12:55 1020 30.12 849 25.07 26.4 79.5 27 6.2 43.2
13:00 1019 30.09 849 25.07 26.6 79.9 27 6.5 43.7
13:05 1019 30.09 849 25.07 27.1 80.7 25 5.4 41.8
13:10 1019 30.09 848 25.04 27 80.5 26 6.1 43
13:15 1019 30.09 848 25.04 27.4 81.3 25 6.1 43
13:20 1019 30.09 848 25.04 28 82.4 24 6 42.8
13:25 1019 30.09 848 25.04 28.5 83.4 23 5.8 42.4
13:30 1019 30.09 848 25.04 28.6 83.5 24 6.3 43.3
13:35 1019 30.09 848 25.04 28.9 83.9 22 5.3 41.6
13:40 1019 30.09 848 25.04 29.1 84.3 20 4.2 39.6
13:45 1019 30.09 848 25.04 29.2 84.6 22 5.6 42.1
13:50 1019 30.09 848 25.04 29.2 84.6 22 5.5 42
13:55 1019 30.09 848 25.04 28.8 83.8 15 -0.5 31.1
14:00 1019 30.09 848 25.04 28.3 82.9 20 3.6 38.5
14:05 1019 30.09 848 25.04 28.2 82.7 19 2.8 37
14:10 1019 30.09 848 25.04 28.4 83.1 13 -2.2 28.1
14:15 1019 30.09 848 25.04 28.4 83.1 15 -0.2 31.6
14:20 1019 30.09 848 25.04 29.3 84.7 14 -1 30.2
14:25 1019 30.09 848 25.04 28.3 83 13 -2.9 26.9
14:30 1019 30.09 848 25.04 28.2 82.7 13 -3 26.5
14:35 1019 30.09 848 25.04 28.7 83.7 13 -1.9 28.6
14:40 1019 30.09 848 25.04 29.4 84.8 12 -2.8 27
14:45 1019 30.09 848 25.04 29.1 84.5 13 -2.1 28.3
14:50 1018 30.06 848 25.04 30.1 86.2 13 -1.1 30.1
14:55 1018 30.06 848 25.04 30.7 87.2 12 -1.7 28.9
15:00 1018 30.06 848 25.04 30.1 86.2 12 -2.4 27.7
15:05 1018 30.06 847 25.01 29.8 85.7 11 -3.7 25.4
15:10 1018 30.06 847 25.01 30.1 86.2 12 -2.2 28
15:15 1018 30.06 847 25.01 30.3 86.5 11 -3.7 25.4
15:20 1018 30.06 847 25.01 30.4 86.7 10 -4.6 23.8
15:25 1018 30.06 847 25.01 30 86 10 -4.4 24.1
15:30 1018 30.06 847 25.01 30.1 86.1 10 -4.2 24.5
15:35 1018 30.06 847 25.01 30.1 86.3 9 -6 21.2
15:40 1018 30.06 847 25.01 29.6 85.3 9 -6.4 20.4
15:45 1018 30.06 848 25.04 29.7 85.5 9 -5.8 21.6
15:50 1018 30.06 848 25.04 30.2 86.3 17 3.1 37.5
15:55 1018 30.06 848 25.04 29 84.2 19 3.5 38.3
16:00 1018 30.06 847 25.01 28.1 82.6 21 4 39.2
16:05 1018 30.06 847 25.01 27.4 81.2 22 4.1 39.5
16:10 1018 30.06 848 25.04 27.3 81.2 21 3.5 38.3
16:15 1018 30.06 848 25.04 27.2 81 22 4.1 39.4
16:20 1018 30.06 848 25.04 26.8 80.2 22 3.6 38.5
16:25 1018 30.06 848 25.04 26.8 80.2 22 3.8 38.9
16:30 1018 30.06 848 25.04 26.6 79.8 23 3.7 38.7
16:35 1019 30.09 848 25.04 26.7 80 22 3.6 38.6
16:40 1019 30.09 848 25.04 26.6 79.9 22 3.6 38.5
16:45 1019 30.09 848 25.04 26.5 79.6 22 3.3 37.9
16:50 1019 30.09 848 25.04 26.4 79.5 22 3.5 38.4
16:55 1019 30.09 848 25.04 26.3 79.4 22 3.4 38.2
17:00 1019 30.09 848 25.04 26.1 79 22 2.8 37.1
17:05 1019 30.09 848 25.04 26.1 78.9 22 3.2 37.7
17:10 1019 30.09 848 25.04 26 78.8 23 3.3 37.9
17:15 1019 30.09 848 25.04 26.1 78.9 23 3.5 38.2
17:20 1019 30.09 848 25.04 26.1 78.9 22 3.2 37.8
17:25 1019 30.09 848 25.04 26.2 79.2 22 3.3 38
17:30 1019 30.09 848 25.04 26.4 79.4 22 3.1 37.7
17:35 1019 30.09 848 25.04 26.4 79.4 23 3.5 38.4
17:40 1019 30.09 848 25.04 26.4 79.6 23 3.9 39
17:45 1019 30.09 848 25.04 26.1 79 23 3.6 38.6
17:50 1018 30.06 848 25.04 25.8 78.5 23 3.7 38.6
17:55 1018 30.06 848 25.04 25.8 78.4 24 3.7 38.6
18:00 1018 30.06 848 25.04 25.6 78.2 24 3.7 38.6
18:05 1018 30.06 848 25.04 25.7 78.3 24 4 39.2
18:10 1018 30.06 848 25.04 25.6 78.1 24 3.8 38.8
18:15 1018 30.06 848 25.04 25.5 77.8 25 4.1 39.4
18:20 1019 30.09 848 25.04 25.4 77.7 25 4.3 39.7
18:25 1019 30.09 848 25.04 25.4 77.6 25 4.3 39.7
18:30 1019 30.09 848 25.04 25.3 77.5 25 4.3 39.8
18:35 1019 30.09 848 25.04 25.2 77.4 25 4.3 39.7
18:40 1019 30.09 848 25.04 25.2 77.3 26 4.6 40.3
18:45 1019 30.09 848 25.04 25 77 26 4.6 40.3
18:50 1019 30.09 848 25.04 24.9 76.7 27 4.8 40.6
18:55 1019 30.09 848 25.04 24.7 76.4 27 4.6 40.2
19:00 1019 30.09 848 25.04 24.5 76.2 28 4.8 40.7
19:05 1019 30.09 848 25.04 24.4 75.8 28 5 41
19:10 1019 30.09 848 25.04 24.1 75.4 29 5.1 41.2
19:15 1019 30.09 848 25.04 23.9 74.9 30 5.3 41.5
19:20 1019 30.09 848 25.04 23.5 74.4 31 5.5 41.8
19:25 1019 30.09 848 25.04 23.3 74 31 5.6 42.1
19:30 1019 30.09 848 25.04 23.3 73.9 32 5.8 42.5
19:35 1019 30.09 848 25.04 23.1 73.6 33 6 42.8
19:40 1019 30.09 849 25.07 22.9 73.1 34 6.3 43.3
19:45 1019 30.09 849 25.07 22.5 72.5 35 6.4 43.5
19:50 1020 30.12 849 25.07 22.4 72.2 36 6.6 43.9
19:55 1020 30.12 849 25.07 22.2 72 36 6.5 43.8
20:00 1020 30.12 849 25.07 22.2 71.9 36 6.4 43.6
20:05 1020 30.12 849 25.07 22.2 72 36 6.4 43.6
20:10 1020 30.12 849 25.07 22.2 71.9 36 6.5 43.7
20:15 1020 30.12 849 25.07 22.1 71.8 36 6.6 43.8
20:20 1020 30.12 849 25.07 22 71.7 36 6.5 43.6
20:25 1020 30.12 849 25.07 22 71.7 36 6.5 43.6
20:30 1020 30.12 849 25.07 21.9 71.5 37 6.6 43.8
20:35 1020 30.12 849 25.07 21.9 71.3 37 6.7 44
20:40 1020 30.12 849 25.07 21.8 71.2 37 6.5 43.8
20:45 1020 30.12 849 25.07 21.8 71.2 37 6.7 44.1
20:50 1020 30.12 849 25.07 21.8 71.2 37 6.6 43.8
20:55 1020 30.12 849 25.07 21.7 71 38 6.7 44.1
21:00 1020 30.12 849 25.07 21.6 70.9 38 6.7 44
21:05 1020 30.12 849 25.07 21.6 70.8 38 6.8 44.3
21:10 1020 30.12 850 25.1 21.5 70.7 39 7.1 44.8
21:15 1020 30.12 850 25.1 21.4 70.5 40 7.3 45.2
21:20 1021 30.15 850 25.1 21.2 70.2 41 7.7 45.8
21:25 1021 30.15 850 25.1 20.9 69.7 42 7.8 46
21:30 1021 30.15 850 25.1 20.6 69.1 43 7.9 46.2
21:35 1021 30.15 850 25.1 20.3 68.5 45 8.1 46.6
21:40 1021 30.15 850 25.1 19.8 67.7 46 8.1 46.6
21:45 1021 30.15 850 25.1 19.5 67.2 47 8.2 46.7
21:50 1021 30.15 850 25.1 19.3 66.8 48 8.2 46.8
21:55 1021 30.15 850 25.1 19.1 66.4 49 8.2 46.8
22:00 1021 30.15 851 25.13 19.1 66.3 49 8.2 46.7
22:05 1021 30.15 851 25.13 19 66.2 49 8.1 46.6
22:10 1021 30.15 851 25.13 19 66.1 49 8.2 46.8
22:15 1021 30.15 851 25.13 18.9 66.1 49 8.2 46.8
22:20 1021 30.15 851 25.13 18.8 65.8 50 8.4 47.1
22:25 1021 30.15 851 25.13 18.7 65.7 51 8.4 47.1
22:30 1021 30.15 851 25.13 18.7 65.6 51 8.5 47.3
22:35 1022 30.18 851 25.13 18.5 65.4 52 8.6 47.4
22:40 1022 30.18 851 25.13 18.5 65.3 52 8.7 47.6
22:45 1022 30.18 851 25.13 18.4 65.2 53 8.8 47.8
22:50 1022 30.18 851 25.13 18.4 65 53 8.8 47.9
22:55 1022 30.18 851 25.13 18.3 64.9 56 9.3 48.8
23:00 1022 30.18 851 25.13 17.9 64.3 57 9.5 49.1
23:05 1022 30.18 851 25.13 17.8 64 58 9.5 49.2
23:10 1022 30.18 851 25.13 17.6 63.7 60 9.9 49.8
23:15 1022 30.18 851 25.13 17.4 63.4 61 9.9 49.8
23:20 1022 30.18 851 25.13 17.3 63.1 62 9.9 49.9
23:25 1022 30.18 851 25.13 17.2 62.9 62 9.8 49.7
23:30 1022 30.18 851 25.13 17.1 62.8 62 9.9 49.8
23:35 1022 30.18 851 25.13 17.1 62.7 62 9.9 49.8
23:40 1022 30.18 851 25.13 17 62.6 62 9.9 49.7
23:45 1022 30.18 851 25.13 17 62.6 62 9.8 49.6
23:50 1022 30.18 851 25.13 17 62.6 62 9.8 49.6
23:55 1022 30.18 851 25.13 16.9 62.4 63 9.8 49.7
24:00 1022 30.18 851 25.13 16.8 62.2 63 9.9 49.8